Time;durP1;ratioP1;P1;durP2;ratioP2;P2;SDS_P1;SDS_P2;PMS_P1;PMS_P2;Temp;Humidity;BMP_temperature;BMP_pressure;BME280_temperature;BME280_humidity;BME280_pressure;Samples;Min_cycle;Max_cycle;Signal;HPM_P1;HPM_P2
2024/03/10 00:01:59;;;;;;;15.13;3.08;;;10.20;1.00;;;;;;4981792;28;20214;-84
2024/03/10 00:04:25;;;;;;;15.83;4.57;;;10.10;1.00;;;;;;4980959;28;20172;-84
2024/03/10 00:06:51;;;;;;;14.68;3.70;;;10.00;1.00;;;;;;4965684;28;20412;-84
2024/03/10 00:09:17;;;;;;;17.47;3.53;;;10.00;1.00;;;;;;4982473;28;20712;-84
2024/03/10 00:11:44;;;;;;;16.83;4.77;;;10.10;1.00;;;;;;4981836;28;20544;-84
2024/03/10 00:14:10;;;;;;;15.10;3.58;;;10.20;1.00;;;;;;4983026;28;20164;-84
2024/03/10 00:16:35;;;;;;;16.77;3.50;;;10.20;1.00;;;;;;4982181;28;20172;-84
2024/03/10 00:19:03;;;;;;;15.80;3.20;;;10.30;1.00;;;;;;4981187;28;20415;-84
2024/03/10 00:21:29;;;;;;;16.55;3.88;;;10.30;1.00;;;;;;4980692;28;20200;-84
2024/03/10 00:23:54;;;;;;;16.20;3.72;;;10.40;1.00;;;;;;4982478;28;20246;-84
2024/03/10 00:26:23;;;;;;;17.00;3.57;;;10.50;1.00;;;;;;4982438;28;20206;-84
2024/03/10 00:28:49;;;;;;;15.57;3.50;;;10.60;1.00;;;;;;4981165;28;20204;-84
2024/03/10 00:31:15;;;;;;;16.40;3.20;;;10.60;1.00;;;;;;4980533;28;20202;-84
2024/03/10 00:33:42;;;;;;;15.60;2.55;;;10.60;1.00;;;;;;4982096;28;20183;-84
2024/03/10 00:36:08;;;;;;;16.13;3.70;;;10.60;1.00;;;;;;4982114;28;20681;-84
2024/03/10 00:38:34;;;;;;;14.32;3.05;;;10.60;1.00;;;;;;4964218;28;20598;-84
2024/03/10 00:40:59;;;;;;;18.57;3.50;;;10.60;1.00;;;;;;4981231;28;20215;-84
2024/03/10 00:43:25;;;;;;;15.10;3.80;;;10.50;1.00;;;;;;4980852;28;20164;-84
2024/03/10 00:45:51;;;;;;;17.40;3.97;;;10.40;1.00;;;;;;4981800;28;20263;-84
2024/03/10 00:48:20;;;;;;;16.83;3.63;;;10.50;1.00;;;;;;4982321;28;20443;-83
2024/03/10 00:50:46;;;;;;;14.23;3.28;;;10.50;1.00;;;;;;4981787;28;20207;-84
2024/03/10 00:53:14;;;;;;;16.83;3.50;;;10.30;1.00;;;;;;4981805;28;20164;-84
2024/03/10 00:55:39;;;;;;;14.25;3.63;;;10.40;1.00;;;;;;4981977;28;20430;-84
2024/03/10 00:58:05;;;;;;;17.40;3.43;;;10.20;1.00;;;;;;4980610;28;20176;-84
2024/03/10 01:00:34;;;;;;;16.10;3.43;;;10.20;1.00;;;;;;4981354;28;20187;-83
2024/03/10 01:03:01;;;;;;;15.45;3.72;;;10.10;1.00;;;;;;4963785;28;20545;-84
2024/03/10 01:05:26;;;;;;;20.05;5.10;;;10.20;1.00;;;;;;4980374;28;20593;-84
2024/03/10 01:07:53;;;;;;;15.87;3.37;;;10.10;1.00;;;;;;4979479;28;20176;-84
2024/03/10 01:10:18;;;;;;;15.90;3.80;;;10.10;1.00;;;;;;4980853;28;20234;-84
2024/03/10 01:12:44;;;;;;;16.73;3.17;;;10.10;1.00;;;;;;4981765;28;20207;-84
2024/03/10 01:15:10;;;;;;;14.73;3.63;;;10.10;1.00;;;;;;4981204;28;20255;-84
2024/03/10 01:17:36;;;;;;;14.23;3.17;;;10.10;1.00;;;;;;4981177;28;20163;-84
2024/03/10 01:20:03;;;;;;;14.25;3.33;;;10.00;1.00;;;;;;4981141;28;20541;-83
2024/03/10 01:22:31;;;;;;;15.40;3.75;;;10.10;1.00;;;;;;4981532;28;20712;-84
2024/03/10 01:24:57;;;;;;;15.13;3.45;;;10.10;1.00;;;;;;4980930;28;20216;-84
2024/03/10 01:27:22;;;;;;;17.83;3.37;;;10.00;1.00;;;;;;4980103;28;20645;-84
2024/03/10 01:29:48;;;;;;;15.10;3.93;;;10.10;1.00;;;;;;4981126;28;20215;-84
2024/03/10 01:32:14;;;;;;;16.87;3.60;;;10.10;1.00;;;;;;4980802;28;20188;-84
2024/03/10 01:34:39;;;;;;;17.73;3.53;;;10.10;1.00;;;;;;4980963;28;20167;-84
2024/03/10 01:37:05;;;;;;;14.90;3.00;;;10.20;1.00;;;;;;4980633;28;20199;-84
2024/03/10 01:39:30;;;;;;;17.13;3.40;;;10.10;1.00;;;;;;4963483;28;20266;-84
2024/03/10 01:41:57;;;;;;;15.90;3.60;;;10.10;1.00;;;;;;4980794;28;20239;-84
2024/03/10 01:44:23;;;;;;;15.93;3.30;;;10.10;1.00;;;;;;4979346;28;20174;-84
2024/03/10 01:46:50;;;;;;;16.35;4.43;;;10.00;1.00;;;;;;4980954;28;20174;-83
2024/03/10 01:49:17;;;;;;;17.40;3.80;;;10.00;1.00;;;;;;4981250;28;20214;-84
2024/03/10 01:51:43;;;;;;;14.50;2.90;;;9.90;1.00;;;;;;4964115;28;20188;-84
2024/03/10 01:54:11;;;;;;;14.70;2.95;;;9.90;1.00;;;;;;4981606;28;20167;-84
2024/03/10 01:56:38;;;;;;;20.55;4.30;;;9.90;1.00;;;;;;4980651;28;20171;-83
2024/03/10 01:59:10;;;;;;;16.33;3.60;;;9.80;1.00;;;;;;4979819;28;20172;-84
2024/03/10 02:01:38;;;;;;;16.80;4.35;;;9.90;1.00;;;;;;4980399;28;20202;-84
2024/03/10 02:04:09;;;;;;;15.43;4.60;;;9.90;1.00;;;;;;4980795;28;20164;-84
2024/03/10 02:06:37;;;;;;;16.75;3.67;;;9.80;1.00;;;;;;4981261;28;20518;-84
2024/03/10 02:09:03;;;;;;;15.35;3.20;;;9.80;1.00;;;;;;4980238;28;20199;-84
2024/03/10 02:11:29;;;;;;;15.70;3.53;;;9.70;1.00;;;;;;4979880;28;20195;-83
2024/03/10 02:13:58;;;;;;;16.52;3.50;;;9.80;1.00;;;;;;4980665;28;20163;-84
2024/03/10 02:16:24;;;;;;;14.73;3.45;;;9.80;1.00;;;;;;4979403;28;20178;-84
2024/03/10 02:18:52;;;;;;;14.27;3.30;;;9.70;1.00;;;;;;4980421;28;20231;-84
2024/03/10 02:21:21;;;;;;;16.35;4.07;;;9.70;1.00;;;;;;4981007;28;20262;-84
2024/03/10 02:24:19;;;;;;;14.93;3.92;;;9.80;1.00;;;;;;4979251;28;20179;-84
2024/03/10 02:26:48;;;;;;;14.27;3.60;;;9.80;1.00;;;;;;4980207;28;20522;-84
2024/03/10 02:29:26;;;;;;;15.27;3.47;;;9.90;1.00;;;;;;4978682;28;20224;-84
2024/03/10 02:48:20;;;;;;;17.40;3.13;;;9.80;1.00;;;;;;4980679;28;20211;-84
2024/03/10 02:50:48;;;;;;;16.00;3.53;;;9.90;1.00;;;;;;4980047;28;20180;-84
2024/03/10 02:53:14;;;;;;;17.10;3.83;;;9.90;1.00;;;;;;4979389;28;20175;-84
2024/03/10 02:55:40;;;;;;;15.43;3.50;;;9.90;1.00;;;;;;4978488;28;20176;-84
2024/03/10 02:58:06;;;;;;;15.37;3.70;;;9.90;1.00;;;;;;4979618;28;20164;-84
2024/03/10 03:00:33;;;;;;;14.57;3.20;;;9.80;1.00;;;;;;4979668;28;20195;-84
2024/03/10 03:02:59;;;;;;;14.82;4.00;;;9.80;1.00;;;;;;4980019;28;20171;-84
2024/03/10 03:05:28;;;;;;;15.52;3.78;;;9.80;1.00;;;;;;4981319;28;20168;-84
2024/03/10 03:07:55;;;;;;;16.42;3.67;;;9.80;1.00;;;;;;4983076;28;20172;-84
2024/03/10 03:10:20;;;;;;;15.30;3.45;;;9.80;1.00;;;;;;4981923;28;20677;-84
2024/03/10 03:12:49;;;;;;;14.33;3.13;;;9.80;1.00;;;;;;4983218;28;20183;-84
2024/03/10 03:15:15;;;;;;;15.40;3.45;;;9.90;1.00;;;;;;4983476;28;20214;-84
2024/03/10 03:17:42;;;;;;;14.40;3.13;;;9.90;1.00;;;;;;4981947;28;20168;-84
2024/03/10 03:20:20;;;;;;;18.40;4.18;;;9.90;1.00;;;;;;4965734;28;20258;-84
2024/03/10 03:22:47;;;;;;;15.02;2.83;;;9.90;1.00;;;;;;4982905;28;20156;-84
2024/03/10 03:25:14;;;;;;;14.02;2.60;;;9.80;1.00;;;;;;4982318;28;20176;-84
2024/03/10 03:27:44;;;;;;;15.43;3.35;;;9.80;1.00;;;;;;4983467;28;20258;-83
2024/03/10 03:30:10;;;;;;;16.67;3.28;;;9.80;1.00;;;;;;4983225;28;20180;-84
2024/03/10 03:32:36;;;;;;;15.15;3.08;;;9.70;1.00;;;;;;4982758;28;20175;-84
2024/03/10 03:35:02;;;;;;;12.87;2.70;;;9.80;1.00;;;;;;4982736;28;20168;-84
2024/03/10 03:37:28;;;;;;;16.23;3.10;;;9.70;1.00;;;;;;4983286;28;20434;-84
2024/03/10 03:39:57;;;;;;;15.40;3.50;;;9.70;1.00;;;;;;4982743;28;20172;-84
2024/03/10 03:42:22;;;;;;;15.30;3.75;;;9.70;1.00;;;;;;4980802;28;20179;-84
2024/03/10 03:44:49;;;;;;;15.13;3.00;;;9.80;1.00;;;;;;4983154;28;20168;-85
2024/03/10 03:47:17;;;;;;;16.30;3.50;;;9.70;1.00;;;;;;4982600;28;20171;-84
2024/03/10 03:49:45;;;;;;;15.45;3.08;;;9.70;1.00;;;;;;4980859;28;20207;-84
2024/03/10 03:52:11;;;;;;;14.07;3.42;;;9.70;1.00;;;;;;4964680;28;20194;-84
2024/03/10 03:54:39;;;;;;;14.23;2.70;;;9.70;1.00;;;;;;4981303;28;20187;-84
2024/03/10 03:57:06;;;;;;;14.30;3.15;;;9.80;1.00;;;;;;4980993;28;20235;-84
2024/03/10 03:59:31;;;;;;;14.70;2.97;;;9.80;1.00;;;;;;4981312;28;20176;-84
2024/03/10 04:01:58;;;;;;;14.80;2.97;;;9.80;1.00;;;;;;4982097;28;20192;-84
2024/03/10 04:04:24;;;;;;;15.50;3.45;;;9.80;1.00;;;;;;4982174;28;20172;-84
2024/03/10 04:06:49;;;;;;;15.30;3.27;;;9.80;1.00;;;;;;4982948;28;20175;-84
2024/03/10 04:09:15;;;;;;;13.17;2.80;;;9.90;1.00;;;;;;4982567;28;20542;-84
2024/03/10 04:11:40;;;;;;;14.10;3.03;;;9.80;1.00;;;;;;4981767;28;20242;-84
2024/03/10 04:14:07;;;;;;;15.53;2.90;;;9.80;1.00;;;;;;4982511;28;20187;-84
2024/03/10 04:16:33;;;;;;;16.60;3.65;;;9.80;1.00;;;;;;4980923;28;20211;-84
2024/03/10 04:18:59;;;;;;;15.27;3.22;;;9.70;1.00;;;;;;4981484;28;20215;-84
2024/03/10 04:21:25;;;;;;;13.93;2.70;;;9.80;1.00;;;;;;4982390;28;20196;-84
2024/03/10 04:23:54;;;;;;;13.77;3.37;;;9.70;1.00;;;;;;4965428;28;20625;-84
2024/03/10 04:26:22;;;;;;;16.80;3.53;;;9.70;1.00;;;;;;4965234;28;20423;-84
2024/03/10 04:28:52;;;;;;;15.35;3.15;;;9.70;1.00;;;;;;4981995;28;20203;-84
2024/03/10 04:31:18;;;;;;;13.73;2.60;;;9.70;1.00;;;;;;4981001;28;20681;-84
2024/03/10 04:33:44;;;;;;;15.40;2.63;;;9.80;1.00;;;;;;4981502;28;20172;-84
2024/03/10 04:36:11;;;;;;;14.90;2.83;;;9.80;1.00;;;;;;4981764;28;20403;-84
2024/03/10 04:38:38;;;;;;;15.32;2.90;;;9.90;1.00;;;;;;4982343;28;20164;-84
2024/03/10 04:41:05;;;;;;;15.15;2.75;;;9.90;1.00;;;;;;4980271;28;20625;-84
2024/03/10 04:43:30;;;;;;;13.88;2.45;;;9.90;1.00;;;;;;4982251;28;20642;-84
2024/03/10 04:45:57;;;;;;;16.30;3.60;;;9.80;1.00;;;;;;4981812;28;20176;-84
2024/03/10 04:48:23;;;;;;;14.73;3.35;;;9.90;1.00;;;;;;4980606;28;20619;-84
2024/03/10 04:50:49;;;;;;;19.92;2.90;;;9.80;1.00;;;;;;4981756;28;20259;-84
2024/03/10 04:53:15;;;;;;;16.30;3.65;;;9.80;1.00;;;;;;4982532;28;20160;-84
2024/03/10 04:55:41;;;;;;;14.63;3.53;;;9.70;1.00;;;;;;4982010;28;20175;-84
2024/03/10 04:58:08;;;;;;;15.02;2.75;;;9.70;1.00;;;;;;4981453;28;20708;-84
2024/03/10 05:00:33;;;;;;;18.13;3.92;;;9.60;1.00;;;;;;4979784;28;20191;-84
2024/03/10 05:03:04;;;;;;;14.80;2.90;;;9.60;1.00;;;;;;4963943;28;20637;-84
2024/03/10 05:05:30;;;;;;;14.32;2.88;;;9.60;1.00;;;;;;4981576;28;20156;-84
2024/03/10 05:07:57;;;;;;;14.50;3.40;;;9.60;1.00;;;;;;4981597;28;20222;-84
2024/03/10 05:10:22;;;;;;;16.17;3.55;;;9.60;1.00;;;;;;4980206;28;20188;-84
2024/03/10 05:12:48;;;;;;;17.37;3.50;;;9.60;1.00;;;;;;4963790;28;20171;-84
2024/03/10 05:15:17;;;;;;;13.37;2.60;;;9.50;1.00;;;;;;4980977;28;20526;-84
2024/03/10 05:17:43;;;;;;;13.57;2.78;;;9.50;1.00;;;;;;4981055;28;20247;-84
2024/03/10 05:20:11;;;;;;;16.20;3.17;;;9.50;1.00;;;;;;4979316;28;20653;-84
2024/03/10 05:22:39;;;;;;;16.55;3.55;;;9.50;1.00;;;;;;4980834;28;20411;-84
2024/03/10 05:25:06;;;;;;;17.50;3.60;;;9.40;1.00;;;;;;4980705;28;20168;-84
2024/03/10 05:27:31;;;;;;;14.60;2.45;;;9.40;1.00;;;;;;4979616;28;20183;-84
2024/03/10 05:29:57;;;;;;;15.00;3.70;;;9.40;1.00;;;;;;4962765;28;20199;-83
2024/03/10 05:32:23;;;;;;;13.27;2.40;;;9.40;1.00;;;;;;4979646;28;20175;-84
2024/03/10 05:34:48;;;;;;;14.83;2.90;;;9.50;1.00;;;;;;4980734;28;20773;-84
2024/03/10 05:37:17;;;;;;;15.03;3.13;;;9.50;1.00;;;;;;4979341;28;20623;-84
2024/03/10 05:39:43;;;;;;;16.55;3.60;;;9.40;1.00;;;;;;4980095;28;20194;-83
2024/03/10 05:42:08;;;;;;;14.10;2.70;;;9.30;1.00;;;;;;4980818;28;20679;-84
2024/03/10 05:44:34;;;;;;;15.47;2.90;;;9.30;1.00;;;;;;4981533;28;20652;-84
2024/03/10 05:47:00;;;;;;;13.57;2.80;;;9.30;1.00;;;;;;4979103;28;20172;-84
2024/03/10 05:49:27;;;;;;;15.75;2.97;;;9.40;1.00;;;;;;4979812;28;20205;-84
2024/03/10 05:51:54;;;;;;;17.17;3.80;;;9.30;1.00;;;;;;4980947;28;20214;-84
2024/03/10 05:54:21;;;;;;;15.60;2.88;;;9.30;1.00;;;;;;4981054;28;20211;-84
2024/03/10 05:56:47;;;;;;;16.17;3.70;;;9.40;1.00;;;;;;4980482;28;20182;-84
2024/03/10 05:59:13;;;;;;;14.40;2.40;;;9.30;1.00;;;;;;4980832;28;20160;-84
2024/03/10 06:01:39;;;;;;;14.82;2.95;;;9.30;1.00;;;;;;4980598;28;20422;-84
2024/03/10 06:04:05;;;;;;;14.85;2.95;;;9.20;1.00;;;;;;4979236;28;20168;-84
2024/03/10 06:06:31;;;;;;;14.27;2.53;;;9.20;1.00;;;;;;4980809;28;20218;-84
2024/03/10 06:08:57;;;;;;;15.83;3.10;;;9.20;1.00;;;;;;4979967;28;20192;-84
2024/03/10 06:11:23;;;;;;;17.63;3.50;;;9.20;1.00;;;;;;4980328;28;20230;-84
2024/03/10 06:13:49;;;;;;;14.63;2.78;;;9.20;1.00;;;;;;4980971;28;20171;-84
2024/03/10 06:16:15;;;;;;;13.98;3.28;;;9.20;1.00;;;;;;4979295;28;20175;-84
2024/03/10 06:26:54;;;;;;;14.18;2.60;;;9.40;1.00;;;;;;4980222;28;20175;-84
2024/03/10 06:29:21;;;;;;;14.35;2.72;;;9.30;1.00;;;;;;4979925;28;20278;-84
2024/03/10 06:31:47;;;;;;;14.23;2.70;;;9.40;1.00;;;;;;4980267;28;20272;-84
2024/03/10 06:34:13;;;;;;;14.68;2.58;;;9.30;1.00;;;;;;4980002;28;20192;-84
2024/03/10 06:36:39;;;;;;;15.00;2.70;;;9.20;1.00;;;;;;4963382;28;20726;-84
2024/03/10 06:39:05;;;;;;;14.27;2.27;;;9.30;1.00;;;;;;4980290;28;20226;-84
2024/03/10 06:41:33;;;;;;;13.23;3.03;;;9.30;1.00;;;;;;4983373;28;20188;-84
2024/03/10 06:43:59;;;;;;;15.88;3.47;;;9.30;1.00;;;;;;4982922;28;20326;-84
2024/03/10 06:46:29;;;;;;;15.35;3.30;;;9.30;1.00;;;;;;4982466;28;20171;-84
2024/03/10 06:48:55;;;;;;;16.55;2.38;;;9.30;1.00;;;;;;4984080;28;20184;-84
2024/03/10 06:51:21;;;;;;;13.57;2.50;;;9.30;1.00;;;;;;4983693;28;20183;-84
2024/03/10 06:53:48;;;;;;;17.73;3.08;;;9.30;1.00;;;;;;4983907;28;20183;-84
2024/03/10 06:56:14;;;;;;;14.07;3.03;;;9.30;1.00;;;;;;4983874;28;20164;-84
2024/03/10 06:58:46;;;;;;;16.23;3.25;;;9.30;1.00;;;;;;4982816;28;20192;-84
2024/03/10 07:01:11;;;;;;;17.38;3.55;;;9.30;1.00;;;;;;4983727;28;20187;-83
2024/03/10 07:03:37;;;;;;;17.37;3.07;;;9.40;1.00;;;;;;4984685;28;20633;-82
2024/03/10 07:06:05;;;;;;;14.17;2.77;;;9.30;1.00;;;;;;4984788;28;20601;-83
2024/03/10 07:08:30;;;;;;;14.50;3.58;;;9.40;1.00;;;;;;4983900;28;20192;-83
2024/03/10 07:10:58;;;;;;;13.77;2.60;;;9.40;1.00;;;;;;4984379;28;20188;-83
2024/03/10 07:13:23;;;;;;;15.65;3.03;;;9.40;1.00;;;;;;4983892;28;20167;-83
2024/03/10 07:15:49;;;;;;;15.87;4.00;;;9.50;1.00;;;;;;4983931;28;20172;-83
2024/03/10 07:18:15;;;;;;;15.03;2.83;;;9.50;1.00;;;;;;4983751;28;20543;-83
2024/03/10 07:20:41;;;;;;;13.65;3.38;;;9.60;1.00;;;;;;4966718;28;20756;-83
2024/03/10 07:23:07;;;;;;;14.33;3.27;;;9.70;1.00;;;;;;4984091;28;20221;-83
2024/03/10 07:25:33;;;;;;;13.90;3.00;;;9.60;1.00;;;;;;4983681;28;20439;-83
2024/03/10 07:27:59;;;;;;;13.47;3.00;;;9.60;1.00;;;;;;4982841;28;20222;-83
2024/03/10 07:30:24;;;;;;;13.77;2.45;;;9.70;1.00;;;;;;4982809;28;20191;-83
2024/03/10 07:32:50;;;;;;;14.13;2.87;;;9.80;1.00;;;;;;4982714;28;20195;-83
2024/03/10 07:35:21;;;;;;;16.50;3.60;;;9.70;1.00;;;;;;4982286;28;20171;-83
2024/03/10 07:37:47;;;;;;;14.82;2.88;;;9.70;1.00;;;;;;4983620;28;20160;-83
2024/03/10 07:40:19;;;;;;;15.65;3.53;;;9.70;1.00;;;;;;4984015;28;20172;-83
2024/03/10 07:42:46;;;;;;;15.75;3.50;;;9.80;1.00;;;;;;4983738;28;20152;-83
2024/03/10 07:45:12;;;;;;;14.57;3.38;;;9.80;1.00;;;;;;4983662;28;20174;-83
2024/03/10 07:47:42;;;;;;;15.07;2.90;;;9.80;1.00;;;;;;4983956;28;20227;-83
2024/03/10 07:50:12;;;;;;;14.55;2.83;;;9.80;1.00;;;;;;4965794;28;20817;-83
2024/03/10 07:52:43;;;;;;;13.75;3.28;;;9.90;1.00;;;;;;4983242;28;20163;-83
2024/03/10 07:55:09;;;;;;;13.90;3.00;;;10.00;1.00;;;;;;4983172;28;20673;-83
2024/03/10 07:57:39;;;;;;;16.35;3.20;;;10.00;1.00;;;;;;4981844;28;20171;-83
2024/03/10 08:00:16;;;;;;;13.52;3.20;;;10.10;1.00;;;;;;4981790;28;20645;-83
2024/03/10 08:02:45;;;;;;;14.65;3.03;;;10.20;1.00;;;;;;4965358;28;20653;-83
2024/03/10 08:05:11;;;;;;;16.25;3.28;;;10.30;1.00;;;;;;4983402;28;20195;-83
2024/03/10 08:07:38;;;;;;;15.63;3.47;;;10.30;1.00;;;;;;4983065;28;20175;-83
2024/03/10 08:10:09;;;;;;;16.50;3.53;;;10.30;1.00;;;;;;4982758;28;20446;-83
2024/03/10 08:12:35;;;;;;;20.65;6.35;;;10.30;1.00;;;;;;4983055;28;20144;-83
2024/03/10 08:15:02;;;;;;;14.75;3.10;;;10.40;1.00;;;;;;4981578;28;20546;-83
2024/03/10 08:17:28;;;;;;;15.75;3.58;;;10.50;1.00;;;;;;4983243;28;20183;-83
2024/03/10 08:19:54;;;;;;;14.45;2.97;;;10.50;1.00;;;;;;4982043;28;20175;-83
2024/03/10 08:22:20;;;;;;;15.70;3.78;;;10.60;1.00;;;;;;4982543;28;20187;-83
2024/03/10 08:24:46;;;;;;;14.80;2.80;;;10.50;1.00;;;;;;4982893;28;20178;-83
2024/03/10 08:27:12;;;;;;;16.10;3.17;;;10.50;1.00;;;;;;4982734;28;20176;-83
2024/03/10 08:29:38;;;;;;;15.70;2.90;;;10.60;1.00;;;;;;4982575;28;20208;-83
2024/03/10 08:32:06;;;;;;;15.05;2.92;;;10.50;1.00;;;;;;4981616;28;20431;-83
2024/03/10 08:34:31;;;;;;;15.70;3.78;;;10.60;1.00;;;;;;4982419;28;20183;-83
2024/03/10 08:36:57;;;;;;;17.53;3.40;;;10.70;1.00;;;;;;4982381;28;20156;-83
2024/03/10 08:39:24;;;;;;;15.50;3.90;;;10.80;1.00;;;;;;4983253;28;20415;-85
2024/03/10 08:41:50;;;;;;;15.75;3.75;;;10.70;1.00;;;;;;4982628;28;20462;-83
2024/03/10 08:44:16;;;;;;;17.27;4.32;;;10.70;1.00;;;;;;4982637;28;20167;-82
2024/03/10 08:46:44;;;;;;;15.77;3.40;;;10.70;1.00;;;;;;4981835;28;20195;-83
2024/03/10 08:49:11;;;;;;;15.65;3.35;;;10.70;1.00;;;;;;4982623;28;20219;-82
2024/03/10 08:51:37;;;;;;;14.43;4.25;;;10.80;1.00;;;;;;4982442;28;20671;-83
2024/03/10 08:54:07;;;;;;;15.07;3.53;;;10.80;1.00;;;;;;4981235;28;20164;-83
2024/03/10 08:56:36;;;;;;;17.25;3.30;;;10.90;1.00;;;;;;4982189;28;20171;-83
2024/03/10 08:59:01;;;;;;;15.43;3.67;;;10.90;1.00;;;;;;4981933;28;20542;-83
2024/03/10 09:01:27;;;;;;;15.40;3.60;;;11.00;1.00;;;;;;4982210;28;20192;-83
2024/03/10 09:03:55;;;;;;;14.00;2.97;;;11.10;1.00;;;;;;4981089;28;20889;-83
2024/03/10 09:06:24;;;;;;;13.75;2.75;;;11.20;1.00;;;;;;4982007;28;20168;-82
2024/03/10 09:08:50;;;;;;;14.57;2.50;;;11.30;1.00;;;;;;4981105;28;20223;-83
2024/03/10 09:11:18;;;;;;;13.10;2.60;;;11.30;1.00;;;;;;4980391;28;20188;-83
2024/03/10 09:13:45;;;;;;;14.82;3.30;;;11.50;1.00;;;;;;4981795;28;20167;-83
2024/03/10 09:16:12;;;;;;;15.52;3.83;;;11.50;1.00;;;;;;4981068;28;20235;-83
2024/03/10 09:18:37;;;;;;;15.75;3.42;;;11.60;1.00;;;;;;4965239;28;20707;-83
2024/03/10 09:21:03;;;;;;;14.83;3.00;;;11.50;1.00;;;;;;4981635;28;20266;-82
2024/03/10 09:23:29;;;;;;;17.60;4.70;;;11.60;1.00;;;;;;4981491;28;20168;-83
2024/03/10 09:25:57;;;;;;;18.77;4.70;;;11.70;1.00;;;;;;4981245;28;20411;-83
2024/03/10 09:28:24;;;;;;;16.92;3.47;;;11.90;1.00;;;;;;4981757;28;20976;-83
2024/03/10 09:30:50;;;;;;;17.40;4.15;;;11.80;1.00;;;;;;4980562;28;20545;-83
2024/03/10 09:33:17;;;;;;;17.17;3.50;;;11.90;1.00;;;;;;4981656;28;20191;-83
2024/03/10 09:35:43;;;;;;;14.13;3.63;;;12.00;1.00;;;;;;4981053;28;20159;-82
2024/03/10 09:38:10;;;;;;;15.02;4.07;;;12.20;1.00;;;;;;4980832;28;20168;-82
2024/03/10 09:40:36;;;;;;;17.88;4.15;;;12.30;1.00;;;;;;4979954;28;20184;-82
2024/03/10 09:43:06;;;;;;;16.20;3.80;;;12.30;1.00;;;;;;4981197;28;20168;-82
2024/03/10 09:45:43;;;;;;;13.80;2.78;;;12.40;1.00;;;;;;4980449;28;20399;-82
2024/03/10 09:48:10;;;;;;;14.07;3.33;;;12.40;1.00;;;;;;4980151;28;20171;-83
2024/03/10 09:50:40;;;;;;;15.10;2.90;;;12.40;1.00;;;;;;4980546;28;20188;-83
2024/03/10 09:53:12;;;;;;;16.05;3.20;;;12.50;1.00;;;;;;4979357;28;20194;-82
2024/03/10 09:55:37;;;;;;;15.07;3.70;;;12.60;1.00;;;;;;4980533;28;20145;-82
2024/03/10 09:58:12;;;;;;;15.40;3.43;;;12.70;1.00;;;;;;4980641;28;20167;-83
2024/03/10 10:00:39;;;;;;;16.08;3.65;;;12.80;1.00;;;;;;4980850;28;20190;-83
2024/03/10 10:03:08;;;;;;;16.13;3.83;;;12.90;1.00;;;;;;4979223;28;20168;-83
2024/03/10 10:05:42;;;;;;;16.08;3.45;;;13.00;1.00;;;;;;4979809;28;20172;-83
2024/03/10 10:08:10;;;;;;;15.07;3.17;;;13.00;1.00;;;;;;4980850;28;20159;-82
2024/03/10 10:10:59;;;;;;;15.32;3.50;;;13.10;1.00;;;;;;4981593;28;20179;-82
2024/03/10 10:13:28;;;;;;;15.05;3.55;;;13.10;1.00;;;;;;4981305;28;20219;-82
2024/03/10 10:15:54;;;;;;;15.48;3.60;;;13.00;1.00;;;;;;4981542;28;20160;-83
2024/03/10 10:18:22;;;;;;;14.52;3.00;;;12.90;1.00;;;;;;4981565;28;20171;-83
2024/03/10 10:20:50;;;;;;;15.95;3.00;;;13.10;1.00;;;;;;4982311;28;20655;-82
2024/03/10 10:23:16;;;;;;;16.63;3.85;;;13.30;1.00;;;;;;4981884;28;20164;-83
2024/03/10 10:25:45;;;;;;;17.47;3.87;;;13.50;1.00;;;;;;4982090;28;20194;-83
2024/03/10 10:28:14;;;;;;;17.17;3.53;;;13.60;1.00;;;;;;4963662;28;20183;-83
2024/03/10 10:30:41;;;;;;;16.50;4.03;;;13.80;1.00;;;;;;4982108;28;20458;-82
2024/03/10 10:33:12;;;;;;;14.80;2.97;;;13.80;1.00;;;;;;4980435;28;20778;-83
2024/03/10 10:35:42;;;;;;;15.20;3.05;;;13.70;1.00;;;;;;4981221;28;20372;-83
2024/03/10 10:38:11;;;;;;;15.70;3.70;;;13.70;1.00;;;;;;4980384;28;20160;-83
2024/03/10 10:40:54;;;;;;;16.90;4.37;;;13.60;1.00;;;;;;4980880;28;20423;-83
2024/03/10 10:43:21;;;;;;;14.53;3.13;;;13.40;1.00;;;;;;4980114;28;20411;-83
2024/03/10 10:45:48;;;;;;;15.77;3.20;;;13.40;1.00;;;;;;4979356;28;20430;-83
2024/03/10 10:48:16;;;;;;;14.40;3.47;;;13.50;1.00;;;;;;4980147;28;20404;-83
2024/03/10 10:50:47;;;;;;;15.40;4.37;;;13.60;1.00;;;;;;4980617;28;20789;-83
2024/03/10 10:53:17;;;;;;;15.83;3.43;;;13.60;1.00;;;;;;4980776;28;20396;-83
2024/03/10 10:55:45;;;;;;;14.80;3.27;;;13.70;1.00;;;;;;4980446;28;20410;-83
2024/03/10 10:58:11;;;;;;;16.03;3.20;;;13.80;1.00;;;;;;4980182;28;20499;-83
2024/03/10 11:00:40;;;;;;;13.87;2.90;;;13.80;1.00;;;;;;4980121;28;20442;-83
2024/03/10 11:03:13;;;;;;;15.30;3.17;;;13.80;1.00;;;;;;4978910;28;20420;-83
2024/03/10 11:05:40;;;;;;;14.70;2.93;;;13.90;1.00;;;;;;4979561;28;20392;-84
2024/03/10 11:08:06;;;;;;;16.05;3.50;;;14.00;1.00;;;;;;4978809;28;20415;-83
2024/03/10 11:10:39;;;;;;;15.13;3.33;;;14.10;1.00;;;;;;4978831;28;20450;-84
2024/03/10 11:13:09;;;;;;;14.83;3.37;;;14.20;1.00;;;;;;4978839;28;20195;-83
2024/03/10 11:15:36;;;;;;;16.03;3.50;;;14.20;1.00;;;;;;4978642;28;20447;-84
2024/03/10 11:18:25;;;;;;;15.80;3.57;;;14.20;1.00;;;;;;4980242;28;20773;-84
2024/03/10 11:20:55;;;;;;;15.60;3.53;;;14.20;1.00;;;;;;4970026;28;20494;-83
2024/03/10 11:23:39;;;;;;;16.37;3.87;;;14.30;1.00;;;;;;4980392;28;20404;-84
2024/03/10 11:26:12;;;;;;;14.47;3.30;;;14.30;1.00;;;;;;4981109;28;20414;-84
2024/03/10 11:28:52;;;;;;;17.40;3.90;;;14.20;1.00;;;;;;4966893;28;20951;-84
2024/03/10 11:31:27;;;;;;;14.97;2.73;;;14.40;1.00;;;;;;4983583;28;20525;-84
2024/03/10 11:34:07;;;;;;;17.23;4.10;;;14.50;1.00;;;;;;4983524;28;20396;-83
2024/03/10 11:36:37;;;;;;;14.70;3.60;;;14.70;1.00;;;;;;4983345;28;20419;-84
2024/03/10 11:39:04;;;;;;;17.10;4.10;;;15.00;1.00;;;;;;4983043;28;20399;-84
2024/03/10 11:41:31;;;;;;;16.00;4.07;;;15.30;1.00;;;;;;4983103;28;20526;-83
2024/03/10 11:43:58;;;;;;;14.87;3.13;;;15.40;99.90;;;;;;4982765;28;20419;-83
2024/03/10 11:46:33;;;;;;;17.03;4.20;;;15.50;1.00;;;;;;4983160;28;20430;-84
2024/03/10 11:48:59;;;;;;;16.60;4.10;;;15.40;1.00;;;;;;4983370;28;20446;-84
2024/03/10 11:51:26;;;;;;;15.60;3.63;;;15.60;99.90;;;;;;4982373;28;20503;-84
2024/03/10 11:53:59;;;;;;;14.13;3.10;;;15.80;1.00;;;;;;4982946;28;20410;-83
2024/03/10 11:56:25;;;;;;;15.47;4.23;;;15.70;99.90;;;;;;4982810;28;20410;-83
2024/03/10 11:58:52;;;;;;;15.40;3.00;;;15.60;99.90;;;;;;4981265;28;20419;-83
2024/03/10 12:01:18;;;;;;;15.47;3.70;;;15.50;99.90;;;;;;4982086;28;20526;-84
2024/03/10 12:03:49;;;;;;;15.40;3.70;;;15.70;99.90;;;;;;4982309;28;20407;-83
2024/03/10 12:06:16;;;;;;;13.37;2.80;;;15.70;99.90;;;;;;4981216;28;20428;-84
2024/03/10 12:08:42;;;;;;;16.10;4.20;;;15.60;99.90;;;;;;4982045;28;20459;-83
2024/03/10 12:11:12;;;;;;;16.07;3.63;;;15.80;99.90;;;;;;4982202;28;20434;-83
2024/03/10 12:13:41;;;;;;;16.47;3.83;;;15.60;99.90;;;;;;4982324;28;20408;-84
2024/03/10 12:16:07;;;;;;;15.80;3.43;;;15.40;99.90;;;;;;4980627;28;20423;-84
2024/03/10 12:18:35;;;;;;;17.90;4.07;;;15.40;99.90;;;;;;4980894;28;20856;-83
2024/03/10 12:21:03;;;;;;;15.93;3.73;;;15.30;99.90;;;;;;4981790;28;20434;-84
2024/03/10 12:23:36;;;;;;;17.30;3.40;;;15.50;99.90;;;;;;4964871;28;20434;-84
2024/03/10 12:26:09;;;;;;;16.27;3.37;;;15.70;99.90;;;;;;4964501;28;20419;-84
2024/03/10 12:28:39;;;;;;;14.67;3.43;;;15.80;99.90;;;;;;4982360;28;20490;-83
2024/03/10 12:31:13;;;;;;;15.70;3.73;;;15.80;99.90;;;;;;4981876;28;20928;-83
2024/03/10 12:33:40;;;;;;;17.17;3.97;;;15.70;99.90;;;;;;4980380;28;20419;-83
2024/03/10 12:36:09;;;;;;;16.63;3.27;;;15.80;99.90;;;;;;4981718;28;20454;-83
2024/03/10 12:38:40;;;;;;;14.47;3.47;;;15.60;99.90;;;;;;4980440;28;20446;-83
2024/03/10 12:41:20;;;;;;;14.40;3.37;;;15.60;99.90;;;;;;4980970;28;20435;-83
2024/03/10 12:43:47;;;;;;;16.20;4.13;;;15.70;99.90;;;;;;4982241;28;20388;-84
2024/03/10 12:46:18;;;;;;;14.53;3.67;;;15.50;99.90;;;;;;4980993;28;20415;-83
2024/03/10 12:48:47;;;;;;;15.47;3.30;;;15.50;99.90;;;;;;4981926;28;20444;-83
2024/03/10 12:51:14;;;;;;;13.70;3.00;;;15.70;99.90;;;;;;4981475;28;20426;-83
2024/03/10 12:53:40;;;;;;;15.80;3.00;;;16.00;99.90;;;;;;4981742;28;20840;-83
2024/03/10 12:56:09;;;;;;;15.00;2.97;;;16.20;99.90;;;;;;4980446;28;20463;-83
2024/03/10 12:58:36;;;;;;;15.87;3.77;;;16.20;99.90;;;;;;4963837;28;20793;-83
2024/03/10 13:01:02;;;;;;;15.67;3.97;;;16.30;99.90;;;;;;4964543;28;20501;-83
2024/03/10 13:03:29;;;;;;;15.27;3.77;;;16.20;99.90;;;;;;4981872;28;20411;-84
2024/03/10 13:05:55;;;;;;;14.00;2.80;;;16.10;99.90;;;;;;4982287;28;20469;-84
2024/03/10 13:08:23;;;;;;;14.63;3.33;;;16.10;99.90;;;;;;4984684;28;20419;-84
2024/03/10 13:10:49;;;;;;;16.00;3.60;;;16.10;99.90;;;;;;4981855;28;20435;-84
2024/03/10 13:13:15;;;;;;;15.67;3.57;;;16.00;99.90;;;;;;4982814;28;20412;-84
2024/03/10 13:15:43;;;;;;;13.67;2.70;;;16.00;99.90;;;;;;4980224;28;20168;-84
2024/03/10 13:18:12;;;;;;;14.80;3.50;;;16.00;99.90;;;;;;4982069;28;20410;-84